createdAt,value
2022-08-09T10:09:00.721Z,976.51
2022-08-09T10:09:28.878Z,976.53
2022-08-09T10:10:28.932Z,976.55
2022-08-09T10:11:53.876Z,976.57
2022-08-09T10:12:29.637Z,976.59
2022-08-09T10:23:00.964Z,976.65
2022-08-09T10:23:53.099Z,976.65
2022-08-09T10:24:52.959Z,976.64
2022-08-09T10:26:08.163Z,976.63
2022-08-09T11:42:26.230Z,976.71
2022-08-09T11:43:17.585Z,976.68
2022-08-09T11:44:28.067Z,976.78
2022-08-09T12:14:10.542Z,976.62
2022-08-09T12:15:07.881Z,976.67
2022-08-09T12:15:52.427Z,976.71
2022-08-09T12:16:42.994Z,976.71
2022-08-09T12:17:47.801Z,976.67
2022-08-09T12:18:42.957Z,976.70
2022-08-09T12:19:42.977Z,976.66
2022-08-09T12:20:43.031Z,976.63
2022-08-09T12:23:56.474Z,976.68
2022-08-09T12:56:14.121Z,976.78
2022-08-09T12:57:11.499Z,976.75
2022-08-09T12:58:03.545Z,976.66
2022-08-09T12:59:00.485Z,976.67
2022-08-09T13:00:03.891Z,976.70
2022-08-09T13:01:00.820Z,976.69
2022-08-09T13:02:02.368Z,976.73
2022-08-09T13:03:01.497Z,976.72
2022-08-09T13:04:37.751Z,976.68
2022-08-09T13:05:05.898Z,976.70
2022-08-09T13:06:24.094Z,976.72
2022-08-09T13:07:01.134Z,976.70
2022-08-09T13:08:01.115Z,976.76
2022-08-09T13:09:06.339Z,976.76
2022-08-09T13:10:03.962Z,976.71
2022-08-09T13:11:22.985Z,976.72
2022-08-09T13:12:03.188Z,976.70
2022-08-09T13:13:10.963Z,976.70
2022-08-09T13:14:41.988Z,976.74
2022-08-09T13:15:01.583Z,976.71
2022-08-09T13:16:01.628Z,976.75
2022-08-09T13:17:03.482Z,976.66
2022-08-09T13:18:20.190Z,976.59
2022-08-09T13:19:03.263Z,976.67
2022-08-09T13:20:07.725Z,976.66
2022-08-09T13:22:36.587Z,976.64
2022-08-09T13:22:38.239Z,976.69
2022-08-09T13:23:51.231Z,976.66
2022-08-09T13:24:16.084Z,976.67
2022-08-09T13:25:13.703Z,976.66
2022-08-09T13:26:02.235Z,976.65
2022-08-09T13:27:23.410Z,976.61
2022-08-09T13:28:34.198Z,976.61
2022-08-09T13:29:05.428Z,976.61
2022-08-09T13:30:48.706Z,976.63
2022-08-09T13:32:17.272Z,976.58
2022-08-09T14:00:54.618Z,976.54
